createdAt,value
2023-03-11T00:00:56.636Z,5.84
2023-03-11T00:02:07.761Z,5.95
2023-03-11T00:03:06.729Z,5.90
2023-03-11T00:03:47.275Z,5.79
2023-03-11T00:04:54.443Z,5.95
2023-03-11T00:05:47.324Z,5.81
2023-03-11T00:06:56.271Z,5.88
2023-03-11T00:08:05.810Z,5.95
2023-03-11T00:10:18.645Z,5.98
2023-03-11T00:11:18.500Z,5.98
2023-03-11T00:12:19.584Z,6.09
2023-03-11T00:13:18.371Z,6.06
2023-03-11T00:14:18.582Z,6.05
2023-03-11T00:15:18.436Z,5.95
2023-03-11T00:16:18.397Z,5.87
2023-03-11T00:17:18.170Z,6.05
2023-03-11T00:18:18.195Z,6.06
2023-03-11T00:19:18.064Z,5.95
2023-03-11T00:20:18.208Z,5.98
2023-03-11T00:21:18.010Z,5.83
2023-03-11T00:22:18.126Z,5.79
2023-03-11T00:23:17.876Z,5.91
2023-03-11T00:24:17.927Z,5.92
2023-03-11T00:25:17.775Z,5.94
2023-03-11T00:26:17.979Z,6.01
2023-03-11T00:27:17.802Z,5.99
2023-03-11T00:28:17.633Z,6.06
2023-03-11T00:29:17.587Z,6.01
2023-03-11T00:30:17.760Z,6.10
2023-03-11T00:31:17.619Z,6.16
2023-03-11T00:32:17.598Z,6.09
2023-03-11T00:33:17.408Z,6.10
2023-03-11T00:34:17.351Z,6.02
2023-03-11T00:35:17.311Z,6.13
2023-03-11T00:36:17.403Z,5.99
2023-03-11T00:37:17.215Z,6.15
2023-03-11T00:38:17.420Z,6.10
2023-03-11T00:39:17.114Z,6.10
2023-03-11T00:40:17.144Z,6.06
2023-03-11T00:41:17.152Z,6.01
2023-03-11T00:42:16.958Z,6.02
2023-03-11T00:43:17.064Z,6.05
2023-03-11T00:44:16.888Z,6.07
2023-03-11T00:45:16.971Z,6.07
2023-03-11T00:46:16.989Z,6.09
2023-03-11T00:47:16.730Z,6.10
2023-03-11T00:48:16.786Z,6.10
2023-03-11T00:49:16.633Z,6.10
2023-03-11T00:50:16.985Z,6.26
2023-03-11T00:51:16.535Z,6.10
2023-03-11T00:52:16.495Z,6.17
2023-03-11T00:53:16.606Z,6.09
2023-03-11T00:54:16.392Z,6.13
2023-03-11T00:55:16.416Z,6.10
2023-03-11T00:56:16.332Z,6.01
2023-03-11T00:57:16.428Z,6.12
2023-03-11T00:58:16.433Z,6.15
2023-03-11T00:59:16.152Z,6.15
2023-03-11T01:00:16.268Z,6.13
2023-03-11T01:01:16.116Z,6.20
2023-03-11T01:02:16.476Z,6.20
2023-03-11T01:03:15.957Z,6.06
2023-03-11T01:04:16.022Z,6.15
2023-03-11T01:05:16.078Z,6.06
2023-03-11T01:06:15.821Z,5.95
2023-03-11T01:07:15.983Z,5.98
2023-03-11T01:08:15.751Z,6.06
2023-03-11T01:09:15.805Z,6.02
2023-03-11T01:10:15.808Z,5.80
2023-03-11T01:11:15.587Z,5.90
2023-03-11T01:12:15.612Z,5.87
2023-03-11T01:13:15.483Z,5.87
2023-03-11T01:14:15.843Z,5.97
2023-03-11T01:15:15.388Z,5.97
2023-03-11T01:16:15.419Z,5.95
2023-03-11T01:17:15.439Z,5.84
2023-03-11T01:18:15.254Z,5.99
2023-03-11T01:19:15.455Z,5.99
2023-03-11T01:20:15.225Z,5.98
2023-03-11T01:21:15.269Z,6.05
2023-03-11T01:22:15.283Z,5.97
2023-03-11T01:23:15.004Z,5.94
2023-03-11T01:24:16.114Z,5.94
2023-03-11T01:25:14.918Z,5.97
2023-03-11T01:26:15.307Z,5.95
2023-03-11T01:27:14.816Z,5.97
2023-03-11T01:28:14.778Z,5.98
2023-03-11T01:29:14.916Z,6.07
2023-03-11T01:30:14.665Z,6.10
2023-03-11T01:31:14.879Z,6.02
2023-03-11T01:32:14.658Z,6.05
2023-03-11T01:33:14.642Z,6.05
2023-03-11T01:34:14.487Z,5.83
2023-03-11T01:35:14.677Z,5.95
2023-03-11T01:36:14.709Z,5.98
2023-03-11T01:37:14.471Z,5.90
2023-03-11T01:38:14.334Z,5.94
2023-03-11T01:39:14.475Z,5.97
2023-03-11T01:40:14.281Z,5.81
2023-03-11T01:41:14.153Z,5.77
2023-03-11T01:42:14.296Z,5.84
2023-03-11T01:43:14.044Z,5.84
2023-03-11T01:44:14.102Z,5.87
2023-03-11T01:45:14.164Z,5.99
2023-03-11T01:46:13.981Z,6.07
2023-03-11T01:47:14.022Z,6.07
2023-03-11T01:48:13.816Z,6.05
2023-03-11T01:49:14.043Z,6.07
2023-03-11T01:50:13.708Z,6.13
2023-03-11T01:51:13.844Z,6.15
2023-03-11T01:52:13.853Z,6.05
2023-03-11T01:53:13.572Z,6.07
2023-03-11T01:54:14.074Z,6.12
2023-03-11T01:55:13.477Z,6.10
2023-03-11T01:56:14.502Z,6.07
2023-03-11T01:57:13.387Z,6.15
2023-03-11T01:58:13.332Z,6.13
2023-03-11T01:59:13.495Z,6.15
2023-03-11T02:00:13.412Z,6.10
2023-03-11T02:01:13.318Z,6.26
2023-03-11T02:02:13.246Z,6.19
2023-03-11T02:03:13.363Z,6.22
2023-03-11T02:04:13.221Z,6.10
2023-03-11T02:05:12.997Z,6.10
2023-03-11T02:06:13.249Z,6.10
2023-03-11T02:07:12.906Z,6.26
2023-03-11T02:08:13.051Z,6.10
2023-03-11T02:09:12.805Z,6.06
2023-03-11T02:10:12.753Z,6.09
2023-03-11T02:11:12.966Z,6.20
2023-03-11T02:12:12.690Z,6.26
2023-03-11T02:13:12.809Z,6.20
2023-03-11T02:14:12.565Z,6.34
2023-03-11T02:15:12.801Z,6.32
2023-03-11T02:16:12.516Z,6.26
2023-03-11T02:17:12.609Z,6.28
2023-03-11T02:18:13.605Z,6.35
2023-03-11T02:19:12.538Z,6.41
2023-03-11T02:20:12.308Z,6.31
2023-03-11T02:21:12.345Z,6.35
2023-03-11T02:22:12.188Z,6.39
2023-03-11T02:23:12.254Z,6.35
2023-03-11T02:24:12.121Z,6.39
2023-03-11T02:25:12.280Z,6.36
2023-03-11T02:26:12.000Z,6.35
2023-03-11T02:27:11.950Z,6.39
2023-03-11T02:28:20.176Z,6.44
2023-03-11T02:29:12.201Z,6.52
2023-03-11T02:30:20.205Z,6.43
2023-03-11T02:32:52.319Z,6.60
2023-03-11T02:34:25.229Z,6.50
2023-03-11T02:34:59.256Z,6.57
2023-03-11T02:35:51.085Z,6.60
2023-03-11T02:36:50.902Z,6.62
2023-03-11T02:37:50.969Z,6.62
2023-03-11T02:40:38.991Z,6.54
2023-03-11T02:41:25.544Z,6.62
2023-03-11T02:42:27.066Z,6.54
2023-03-11T02:43:26.121Z,6.46
2023-03-11T02:44:24.816Z,6.59
2023-03-11T02:45:17.222Z,6.57
2023-03-11T02:46:17.270Z,6.52
2023-03-11T02:47:17.235Z,6.47
2023-03-11T02:48:17.075Z,6.52
2023-03-11T02:49:17.247Z,6.53
2023-03-11T02:50:17.265Z,6.50
2023-03-11T02:51:17.136Z,6.54
2023-03-11T02:52:17.168Z,6.52
2023-03-11T02:53:16.834Z,6.59
2023-03-11T02:54:17.156Z,6.56
2023-03-11T02:55:16.746Z,6.56
2023-03-11T02:56:16.690Z,6.56
2023-03-11T02:57:16.787Z,6.46
2023-03-11T02:58:16.595Z,6.50
2023-03-11T02:59:16.824Z,6.46
2023-03-11T03:00:16.551Z,6.47
2023-03-11T03:01:16.690Z,6.49
2023-03-11T03:02:16.682Z,6.50
2023-03-11T03:03:16.633Z,6.46
2023-03-11T03:04:16.351Z,6.32
2023-03-11T03:05:16.445Z,6.31
2023-03-11T03:06:16.219Z,6.20
2023-03-11T03:07:16.165Z,6.09
2023-03-11T03:08:16.188Z,6.06
2023-03-11T03:09:16.365Z,5.77
2023-03-11T03:10:16.029Z,5.49
2023-03-11T03:11:16.175Z,5.38
2023-03-11T03:12:15.937Z,5.31
2023-03-11T03:13:15.879Z,5.33
2023-03-11T03:14:16.196Z,5.16
2023-03-11T03:15:15.815Z,5.20
2023-03-11T03:16:16.056Z,5.28
2023-03-11T03:17:15.730Z,5.25
2023-03-11T03:18:15.816Z,5.13
2023-03-11T03:19:16.059Z,5.13
2023-03-11T03:20:15.956Z,5.10
2023-03-11T03:21:15.505Z,5.18
2023-03-11T03:22:15.749Z,5.16
2023-03-11T03:23:15.416Z,5.25
2023-03-11T03:24:15.362Z,5.16
2023-03-11T03:25:15.322Z,5.19
2023-03-11T03:26:15.581Z,5.20
2023-03-11T03:27:15.218Z,5.12
2023-03-11T03:28:15.398Z,4.97
2023-03-11T03:29:15.132Z,5.00
2023-03-11T03:30:15.073Z,4.95
2023-03-11T03:31:15.038Z,4.90
2023-03-11T03:32:15.221Z,4.86
2023-03-11T03:33:14.927Z,4.82
2023-03-11T03:34:15.224Z,4.82
2023-03-11T03:35:14.840Z,4.87
2023-03-11T03:36:14.846Z,4.95
2023-03-11T03:37:15.036Z,4.83
2023-03-11T03:38:14.703Z,4.75
2023-03-11T03:39:14.845Z,4.86
2023-03-11T03:40:14.624Z,4.86
2023-03-11T03:41:14.866Z,4.76
2023-03-11T03:42:14.499Z,4.92
2023-03-11T03:43:14.679Z,4.82
2023-03-11T03:44:14.404Z,4.84
2023-03-11T03:45:14.482Z,4.98
2023-03-11T03:46:14.343Z,4.97
2023-03-11T03:47:14.264Z,5.02
2023-03-11T03:48:14.363Z,4.97
2023-03-11T03:49:14.305Z,5.04
2023-03-11T03:50:14.113Z,5.01
2023-03-11T03:51:14.327Z,5.02
2023-03-11T03:52:14.017Z,5.15
2023-03-11T03:53:14.003Z,5.15
2023-03-11T03:54:14.343Z,5.15
2023-03-11T03:55:13.907Z,5.08
2023-03-11T03:56:13.955Z,5.18
2023-03-11T03:57:13.774Z,5.13
2023-03-11T03:58:13.964Z,5.08
2023-03-11T03:59:13.680Z,5.08
2023-03-11T04:00:13.905Z,5.22
2023-03-11T04:01:13.587Z,5.05
2023-03-11T04:02:13.717Z,5.05
2023-03-11T04:03:13.525Z,5.04
2023-03-11T04:04:13.660Z,5.07
2023-03-11T04:05:13.399Z,5.07
2023-03-11T04:06:13.617Z,4.94
2023-03-11T04:07:13.313Z,4.95
2023-03-11T04:08:13.430Z,4.98
2023-03-11T04:09:13.206Z,4.97
2023-03-11T04:10:13.174Z,4.98
2023-03-11T04:11:13.301Z,5.12
2023-03-11T04:12:13.260Z,5.07
2023-03-11T04:13:13.015Z,5.01
2023-03-11T04:14:13.201Z,4.97
2023-03-11T04:15:12.920Z,5.08
2023-03-11T04:16:12.874Z,5.07
2023-03-11T04:17:13.103Z,5.10
2023-03-11T04:18:12.771Z,5.22
2023-03-11T04:19:12.908Z,5.13
2023-03-11T04:20:12.697Z,5.22
2023-03-11T04:21:12.847Z,5.22
2023-03-11T04:22:12.583Z,5.28
2023-03-11T04:23:12.950Z,5.36
2023-03-11T04:24:12.488Z,5.33
2023-03-11T04:25:12.790Z,5.38
2023-03-11T04:26:12.430Z,5.44
2023-03-11T04:27:12.348Z,5.46
2023-03-11T04:28:12.478Z,5.47
2023-03-11T04:29:12.251Z,5.52
2023-03-11T04:30:13.392Z,5.51
2023-03-11T04:31:12.174Z,5.46
2023-03-11T04:32:12.629Z,5.59
2023-03-11T04:33:12.173Z,5.49
2023-03-11T04:34:12.005Z,5.61
2023-03-11T04:35:12.198Z,5.59
2023-03-11T04:36:11.912Z,5.58
2023-03-11T04:37:12.102Z,5.61
2023-03-11T04:38:11.825Z,5.56
2023-03-11T04:39:11.970Z,5.61
2023-03-11T04:40:11.922Z,5.46
2023-03-11T04:41:11.676Z,5.46
2023-03-11T04:42:11.830Z,5.46
2023-03-11T04:43:11.577Z,5.49
2023-03-11T04:44:11.521Z,5.51
2023-03-11T04:45:11.493Z,5.52
2023-03-11T04:46:11.670Z,5.61
2023-03-11T04:47:11.431Z,5.56
2023-03-11T04:48:12.500Z,5.54
2023-03-11T04:49:11.288Z,5.55
2023-03-11T04:50:11.546Z,5.65
2023-03-11T04:51:11.504Z,5.58
2023-03-11T04:52:11.141Z,5.65
2023-03-11T04:53:11.304Z,5.49
2023-03-11T04:54:11.043Z,5.61
2023-03-11T04:55:11.320Z,5.61
2023-03-11T04:56:11.120Z,5.59
2023-03-11T04:57:10.906Z,5.51
2023-03-11T04:58:11.132Z,5.47
2023-03-11T04:59:23.694Z,5.40
2023-03-11T05:00:11.993Z,5.49
2023-03-11T05:01:28.843Z,5.47
2023-03-11T05:02:19.782Z,5.51
2023-03-11T05:03:11.789Z,5.47
2023-03-11T05:04:10.609Z,5.43
2023-03-11T05:05:19.814Z,5.44
2023-03-11T05:06:18.359Z,5.38
2023-03-11T05:07:22.644Z,5.37
2023-03-11T05:09:12.022Z,5.33
2023-03-11T05:09:12.850Z,5.29
2023-03-11T05:10:29.198Z,5.29
2023-03-11T05:11:13.888Z,5.26
2023-03-11T05:12:12.700Z,5.23
2023-03-11T05:13:21.002Z,5.08
2023-03-11T05:14:13.902Z,5.05
2023-03-11T05:15:12.571Z,5.05
2023-03-11T05:16:12.735Z,5.01
2023-03-11T05:17:12.459Z,5.07
2023-03-11T05:18:13.661Z,5.00
2023-03-11T05:19:12.664Z,5.02
2023-03-11T05:20:12.739Z,5.04
2023-03-11T05:21:12.266Z,4.97
2023-03-11T05:22:12.439Z,4.86
2023-03-11T05:23:12.187Z,4.82
2023-03-11T05:24:12.129Z,4.79
2023-03-11T05:25:12.147Z,4.83
2023-03-11T05:26:12.159Z,4.86
2023-03-11T05:27:11.980Z,4.84
2023-03-11T05:28:13.005Z,4.78
2023-03-11T05:29:12.117Z,4.75
2023-03-11T05:30:11.834Z,4.76
2023-03-11T05:31:11.854Z,4.71
2023-03-11T05:32:13.005Z,4.67
2023-03-11T05:33:11.687Z,4.57
2023-03-11T05:34:11.798Z,4.70
2023-03-11T05:35:11.595Z,4.64
2023-03-11T05:36:11.546Z,4.63
2023-03-11T05:37:12.639Z,4.60
2023-03-11T05:38:11.465Z,4.64
2023-03-11T05:39:11.629Z,4.57
2023-03-11T05:40:11.527Z,4.67
2023-03-11T05:41:11.345Z,4.66
2023-03-11T05:42:11.260Z,4.66
2023-03-11T05:43:11.362Z,4.64
2023-03-11T05:44:11.159Z,4.64
2023-03-11T05:45:11.168Z,4.61
2023-03-11T05:46:11.382Z,4.64
2023-03-11T05:47:11.185Z,4.68
2023-03-11T05:48:10.968Z,4.61
2023-03-11T05:49:11.101Z,4.66
2023-03-11T05:50:10.878Z,4.58
2023-03-11T05:51:10.904Z,4.60
2023-03-11T05:52:10.954Z,4.58
2023-03-11T05:53:11.952Z,4.66
2023-03-11T05:54:10.678Z,4.64
2023-03-11T05:55:10.726Z,4.66
2023-03-11T05:56:10.592Z,4.48
2023-03-11T05:57:10.643Z,4.56
2023-03-11T05:58:10.627Z,4.61
2023-03-11T05:59:10.549Z,4.48
2023-03-11T06:03:48.105Z,4.31
2023-03-11T06:04:47.606Z,4.18
2023-03-11T06:05:47.510Z,4.16
2023-03-11T06:06:47.457Z,4.09
2023-03-11T06:07:47.471Z,4.09
2023-03-11T06:08:47.366Z,4.13
2023-03-11T06:09:47.695Z,4.14
2023-03-11T06:10:48.915Z,4.16
2023-03-11T06:11:47.412Z,4.22
2023-03-11T06:12:47.156Z,4.14
2023-03-11T06:13:48.243Z,4.20
2023-03-11T06:14:47.089Z,4.21
2023-03-11T06:15:47.442Z,4.21
2023-03-11T06:16:46.971Z,4.22
2023-03-11T06:17:47.206Z,4.24
2023-03-11T06:18:46.902Z,4.20
2023-03-11T06:19:46.957Z,4.25
2023-03-11T06:20:47.017Z,4.28
2023-03-11T06:21:46.956Z,4.34
2023-03-11T06:22:46.675Z,4.30
2023-03-11T06:23:46.802Z,4.22
2023-03-11T06:24:46.577Z,4.21
2023-03-11T06:25:47.610Z,4.38
2023-03-11T06:26:46.666Z,4.34
2023-03-11T06:27:46.600Z,4.22
2023-03-11T06:28:46.385Z,4.30
2023-03-11T06:29:48.705Z,4.25
2023-03-11T06:30:46.298Z,4.38
2023-03-11T06:31:46.407Z,4.31
2023-03-11T06:32:47.429Z,4.28
2023-03-11T06:33:47.362Z,4.30
2023-03-11T06:34:46.099Z,4.32
2023-03-11T06:35:46.086Z,4.39
2023-03-11T06:36:46.000Z,4.39
2023-03-11T06:37:46.179Z,4.40
2023-03-11T06:38:45.906Z,4.36
2023-03-11T06:39:47.414Z,4.39
2023-03-11T06:40:45.821Z,4.49
2023-03-11T06:41:45.801Z,4.43
2023-03-11T06:42:45.708Z,4.45
2023-03-11T06:43:45.905Z,4.48
2023-03-11T06:44:45.609Z,4.49
2023-03-11T06:46:06.834Z,4.48
2023-03-11T06:46:45.542Z,4.53
2023-03-11T06:47:45.484Z,4.52
2023-03-11T06:48:45.416Z,4.52
2023-03-11T06:49:45.426Z,4.56
2023-03-11T06:50:47.030Z,4.52
2023-03-11T06:51:45.869Z,4.49
2023-03-11T06:52:45.234Z,4.61
2023-03-11T06:53:45.183Z,4.60
2023-03-11T06:54:45.198Z,4.67
2023-03-11T06:55:47.316Z,4.66
2023-03-11T06:56:45.034Z,4.58
2023-03-11T06:57:45.087Z,4.63
2023-03-11T06:58:45.467Z,4.60
2023-03-11T06:59:44.886Z,4.61
2023-03-11T07:00:44.884Z,4.58
2023-03-11T07:01:45.004Z,4.66
2023-03-11T07:02:45.133Z,4.58
2023-03-11T07:03:45.288Z,4.60
2023-03-11T07:04:44.654Z,4.63
2023-03-11T07:05:44.617Z,4.60
2023-03-11T07:06:44.614Z,4.64
2023-03-11T07:07:44.569Z,4.58
2023-03-11T07:08:45.697Z,4.70
2023-03-11T07:09:44.426Z,4.78
2023-03-11T07:10:44.468Z,4.76
2023-03-11T07:11:44.304Z,4.66
2023-03-11T07:12:44.534Z,4.74
2023-03-11T07:13:44.213Z,4.74
2023-03-11T07:14:44.540Z,4.63
2023-03-11T07:15:44.115Z,4.68
2023-03-11T07:16:44.477Z,4.66
2023-03-11T07:17:44.026Z,4.66
2023-03-11T07:18:44.109Z,4.71
2023-03-11T07:19:43.926Z,4.75
2023-03-11T07:20:44.150Z,4.78
2023-03-11T07:21:43.848Z,4.82
2023-03-11T07:22:43.963Z,4.90
2023-03-11T07:23:43.736Z,4.83
2023-03-11T07:24:43.755Z,4.89
2023-03-11T07:25:43.634Z,4.78
2023-03-11T07:26:44.616Z,4.83
2023-03-11T07:27:43.537Z,4.87
2023-03-11T07:28:43.693Z,4.90
2023-03-11T07:29:43.444Z,4.95
2023-03-11T07:30:43.489Z,4.95
2023-03-11T07:31:43.414Z,4.92
2023-03-11T07:32:52.212Z,4.95
2023-03-11T07:34:01.746Z,4.94
2023-03-11T07:34:52.764Z,5.02
2023-03-11T07:35:43.351Z,4.95
2023-03-11T07:36:43.118Z,4.95
2023-03-11T07:37:45.166Z,5.04
2023-03-11T07:38:43.027Z,5.07
2023-03-11T07:39:44.161Z,5.00
2023-03-11T07:40:43.377Z,5.04
2023-03-11T07:41:42.865Z,5.07
2023-03-11T07:42:52.317Z,5.01
2023-03-11T07:43:51.844Z,5.07
2023-03-11T07:45:06.110Z,5.15
2023-03-11T07:45:42.714Z,5.16
2023-03-11T07:46:42.626Z,5.13
2023-03-11T07:47:42.579Z,5.13
2023-03-11T07:49:03.581Z,5.15
2023-03-11T07:49:42.490Z,5.13
2023-03-11T07:50:42.699Z,5.12
2023-03-11T07:51:42.413Z,5.05
2023-03-11T07:52:42.508Z,5.07
2023-03-11T07:53:42.288Z,5.02
2023-03-11T07:54:42.322Z,5.02
2023-03-11T07:55:42.194Z,5.01
2023-03-11T07:56:42.571Z,5.05
2023-03-11T07:57:42.098Z,5.07
2023-03-11T07:58:43.096Z,5.02
2023-03-11T07:59:42.340Z,5.05
2023-03-11T08:00:42.164Z,5.08
2023-03-11T08:01:42.145Z,5.04
2023-03-11T08:03:03.599Z,5.07
2023-03-11T08:03:42.760Z,5.05
2023-03-11T08:04:41.770Z,5.07
2023-03-11T08:05:41.719Z,5.02
2023-03-11T08:06:41.801Z,4.97
2023-03-11T08:07:41.618Z,5.01
2023-03-11T08:08:41.813Z,4.95
2023-03-11T08:09:41.534Z,4.92
2023-03-11T08:10:41.474Z,4.97
2023-03-11T08:11:41.429Z,4.98
2023-03-11T08:14:13.392Z,4.95
2023-03-11T08:15:13.030Z,4.94
2023-03-11T08:16:15.059Z,4.98
2023-03-11T08:17:12.906Z,4.94
2023-03-11T08:18:13.014Z,4.94
2023-03-11T08:19:12.857Z,4.90
2023-03-11T08:20:13.842Z,4.90
2023-03-11T08:21:12.713Z,5.02
2023-03-11T08:22:12.861Z,4.90
2023-03-11T08:23:12.628Z,4.87
2023-03-11T08:24:12.660Z,4.97
2023-03-11T08:25:12.522Z,4.95
2023-03-11T08:26:12.873Z,4.90
2023-03-11T08:27:12.460Z,5.04
2023-03-11T08:28:12.467Z,4.94
2023-03-11T08:29:12.343Z,5.02
2023-03-11T08:30:12.488Z,4.95
2023-03-11T08:31:12.299Z,4.95
2023-03-11T08:32:12.316Z,4.95
2023-03-11T08:33:12.143Z,5.07
2023-03-11T08:34:12.335Z,5.05
2023-03-11T08:35:12.053Z,5.05
2023-03-11T08:36:12.146Z,5.07
2023-03-11T08:37:11.961Z,5.07
2023-03-11T08:38:12.333Z,5.07
2023-03-11T08:39:12.001Z,5.04
2023-03-11T08:40:11.945Z,5.00
2023-03-11T08:41:11.758Z,5.04
2023-03-11T08:42:11.961Z,5.07
2023-03-11T08:43:11.696Z,5.02
2023-03-11T08:44:11.973Z,5.01
2023-03-11T08:45:11.578Z,5.05
2023-03-11T08:46:11.575Z,5.02
2023-03-11T08:47:11.479Z,5.05
2023-03-11T08:48:11.596Z,5.13
2023-03-11T08:49:11.423Z,5.23
2023-03-11T08:50:13.356Z,5.08
2023-03-11T08:51:11.285Z,5.25
2023-03-11T08:52:11.236Z,5.25
2023-03-11T08:53:11.192Z,5.23
2023-03-11T08:54:11.221Z,5.31
2023-03-11T08:55:11.101Z,5.36
2023-03-11T08:56:11.361Z,5.33
2023-03-11T08:57:11.041Z,5.38
2023-03-11T08:58:10.951Z,5.37
2023-03-11T08:59:11.169Z,5.43
2023-03-11T09:00:12.964Z,5.47
2023-03-11T09:01:10.984Z,5.47
2023-03-11T09:02:10.762Z,5.47
2023-03-11T09:03:10.983Z,5.51
2023-03-11T09:04:10.795Z,5.43
2023-03-11T09:05:10.631Z,5.52
2023-03-11T09:06:10.836Z,5.52
2023-03-11T09:07:10.521Z,5.59
2023-03-11T09:08:10.616Z,5.59
2023-03-11T09:09:10.457Z,5.64
2023-03-11T09:10:10.379Z,5.67
2023-03-11T09:11:10.426Z,5.76
2023-03-11T09:12:10.285Z,5.64
2023-03-11T09:13:10.446Z,5.67
2023-03-11T09:14:10.201Z,5.81
2023-03-11T09:15:11.832Z,5.72
2023-03-11T09:16:10.261Z,5.80
2023-03-11T09:17:10.053Z,5.80
2023-03-11T09:18:10.297Z,5.90
2023-03-11T09:19:09.978Z,5.84
2023-03-11T09:20:09.984Z,5.88
2023-03-11T09:21:09.883Z,5.91
2023-03-11T09:22:09.838Z,5.88
2023-03-11T09:23:09.785Z,6.06
2023-03-11T09:24:10.424Z,6.05
2023-03-11T09:25:09.672Z,6.05
2023-03-11T09:26:09.838Z,6.09
2023-03-11T09:27:09.593Z,6.15
2023-03-11T09:28:09.532Z,6.20
2023-03-11T09:29:09.486Z,6.13
2023-03-11T09:30:09.754Z,6.13
2023-03-11T09:31:36.570Z,6.15
2023-03-11T09:32:09.352Z,6.19
2023-03-11T09:33:09.586Z,6.17
2023-03-11T09:34:23.535Z,6.19
2023-03-11T09:35:30.888Z,6.17
2023-03-11T09:36:30.951Z,6.15
2023-03-11T09:37:09.116Z,6.20
2023-03-11T09:38:09.313Z,6.22
2023-03-11T09:39:11.249Z,6.15
2023-03-11T09:40:08.982Z,6.13
2023-03-11T09:41:08.932Z,6.15
2023-03-11T09:42:09.128Z,6.25
2023-03-11T09:43:08.845Z,6.16
2023-03-11T09:44:09.036Z,6.10
2023-03-11T09:45:08.888Z,6.28
2023-03-11T09:46:08.723Z,6.25
2023-03-11T09:47:08.648Z,6.31
2023-03-11T09:48:08.881Z,6.38
2023-03-11T09:49:08.567Z,6.41
2023-03-11T09:50:08.681Z,6.44
2023-03-11T09:51:09.652Z,6.50
2023-03-11T09:52:08.436Z,6.67
2023-03-11T09:53:08.589Z,6.70
2023-03-11T09:54:08.402Z,6.71
2023-03-11T09:55:08.438Z,6.75
2023-03-11T09:56:08.241Z,6.83
2023-03-11T09:57:08.440Z,6.85
2023-03-11T09:58:08.444Z,6.87
2023-03-11T09:59:08.234Z,6.87
2023-03-11T10:00:08.069Z,6.85
2023-03-11T10:01:08.883Z,6.87
2023-03-11T10:02:09.710Z,6.93
2023-03-11T10:03:09.597Z,6.87
2023-03-11T10:04:08.292Z,6.90
2023-03-11T10:05:08.036Z,6.89
2023-03-11T10:06:08.053Z,6.90
2023-03-11T10:07:09.109Z,6.90
2023-03-11T10:08:09.888Z,6.74
2023-03-11T10:09:07.838Z,6.77
2023-03-11T10:10:08.009Z,6.90
2023-03-11T10:11:07.701Z,6.74
2023-03-11T10:12:08.819Z,6.89
2023-03-11T10:13:08.151Z,6.86
2023-03-11T10:14:08.855Z,6.83
2023-03-11T10:15:07.616Z,6.89
2023-03-11T10:16:07.693Z,6.85
2023-03-11T10:17:07.564Z,6.96
2023-03-11T10:18:07.591Z,7.11
2023-03-11T10:19:07.624Z,7.15
2023-03-11T10:20:08.867Z,7.19
2023-03-11T10:21:07.066Z,7.19
2023-03-11T10:22:09.267Z,7.26
2023-03-11T10:23:09.223Z,7.43
2023-03-11T10:24:06.935Z,7.46
2023-03-11T10:25:06.977Z,7.51
2023-03-11T10:26:06.843Z,7.64
2023-03-11T10:27:06.795Z,7.69
2023-03-11T10:28:07.053Z,7.74
2023-03-11T10:29:06.909Z,7.85
2023-03-11T10:30:07.192Z,7.88
2023-03-11T10:31:06.992Z,7.80
2023-03-11T10:32:06.569Z,7.81
2023-03-11T10:33:06.539Z,7.83
2023-03-11T10:34:06.481Z,7.88
2023-03-11T10:35:06.556Z,7.87
2023-03-11T10:36:06.428Z,7.84
2023-03-11T10:37:06.772Z,7.85
2023-03-11T10:38:06.300Z,7.96
2023-03-11T10:39:06.255Z,8.01
2023-03-11T10:40:06.369Z,8.09
2023-03-11T10:41:06.170Z,8.11
2023-03-11T10:42:06.480Z,8.21
2023-03-11T10:43:06.107Z,8.20
2023-03-11T10:44:06.358Z,8.23
2023-03-11T10:45:05.981Z,8.21
2023-03-11T10:46:06.631Z,8.24
2023-03-11T10:47:05.891Z,8.23
2023-03-11T10:48:06.024Z,8.14
2023-03-11T10:49:05.859Z,8.26
2023-03-11T10:50:06.126Z,8.21
2023-03-11T10:51:05.791Z,8.27
2023-03-11T10:52:05.842Z,8.39
2023-03-11T10:53:05.704Z,8.41
2023-03-11T10:54:05.867Z,8.54
2023-03-11T10:55:05.553Z,8.68
2023-03-11T10:56:05.777Z,8.72
2023-03-11T10:57:05.576Z,8.64
2023-03-11T10:58:05.608Z,8.68
2023-03-11T10:59:05.594Z,8.78
2023-03-11T11:00:05.298Z,8.79
2023-03-11T11:01:05.435Z,8.99
2023-03-11T11:02:05.208Z,9.00
2023-03-11T11:03:05.165Z,9.13
2023-03-11T11:04:05.296Z,9.19
2023-03-11T11:05:06.260Z,9.13
2023-03-11T11:06:05.036Z,9.13
2023-03-11T11:07:05.244Z,9.33
2023-03-11T11:08:04.938Z,9.31
2023-03-11T11:09:04.894Z,9.33
2023-03-11T11:10:05.116Z,9.24
2023-03-11T11:11:04.828Z,9.30
2023-03-11T11:12:04.874Z,9.29
2023-03-11T11:13:04.727Z,9.30
2023-03-11T11:14:04.886Z,9.27
2023-03-11T11:15:04.631Z,9.00
2023-03-11T11:16:04.900Z,8.81
2023-03-11T11:17:04.536Z,8.75
2023-03-11T11:18:04.733Z,8.79
2023-03-11T11:19:04.448Z,9.05
2023-03-11T11:20:04.530Z,9.15
2023-03-11T11:21:04.362Z,9.18
2023-03-11T11:22:04.548Z,9.42
2023-03-11T11:23:04.267Z,9.52
2023-03-11T11:24:04.342Z,9.72
2023-03-11T11:25:04.604Z,9.87
2023-03-11T11:26:04.217Z,9.81
2023-03-11T11:27:04.087Z,9.95
2023-03-11T11:28:04.269Z,10.00
2023-03-11T11:29:04.003Z,10.10
2023-03-11T11:30:04.081Z,10.20
2023-03-11T11:31:04.015Z,10.25
2023-03-11T11:32:04.149Z,10.38
2023-03-11T11:33:03.825Z,10.18
2023-03-11T11:34:04.278Z,10.17
2023-03-11T11:35:03.781Z,10.24
2023-03-11T11:36:03.934Z,10.42
2023-03-11T11:37:03.646Z,10.45
2023-03-11T11:38:03.787Z,10.42
2023-03-11T11:39:03.739Z,10.55
2023-03-11T11:40:03.532Z,10.57
2023-03-11T11:41:03.774Z,10.53
2023-03-11T11:42:03.428Z,10.57
2023-03-11T11:43:03.763Z,10.65
2023-03-11T11:44:03.612Z,10.67
2023-03-11T11:45:03.421Z,10.64
2023-03-11T11:46:03.419Z,10.77
2023-03-11T11:47:05.895Z,10.76
2023-03-11T11:48:03.195Z,10.76
2023-03-11T11:49:03.403Z,10.62
2023-03-11T11:50:03.209Z,10.58
2023-03-11T11:51:03.080Z,10.55
2023-03-11T11:52:03.633Z,10.61
2023-03-11T11:53:02.976Z,10.76
2023-03-11T11:54:03.283Z,10.79
2023-03-11T11:55:02.946Z,10.90
2023-03-11T11:56:02.926Z,11.00
2023-03-11T11:57:02.820Z,11.00
2023-03-11T11:58:02.961Z,11.05
2023-03-11T11:59:02.727Z,11.04
2023-03-11T12:00:02.884Z,11.12
2023-03-11T12:01:02.654Z,11.16
2023-03-11T12:02:02.736Z,11.05
2023-03-11T12:03:02.486Z,11.12
2023-03-11T12:04:02.944Z,11.18
2023-03-11T12:05:02.464Z,11.10
2023-03-11T12:06:02.798Z,11.18
2023-03-11T12:07:02.314Z,11.23
2023-03-11T12:08:02.269Z,11.43
2023-03-11T12:09:02.277Z,11.49
2023-03-11T12:10:13.010Z,11.52
2023-03-11T12:11:02.136Z,11.59
2023-03-11T12:12:02.339Z,11.48
2023-03-11T12:13:02.053Z,11.53
2023-03-11T12:14:02.045Z,11.63
2023-03-11T12:15:01.959Z,11.68
2023-03-11T12:16:02.219Z,11.62
2023-03-11T12:17:03.883Z,11.58
2023-03-11T12:18:02.098Z,11.74
2023-03-11T12:19:01.829Z,11.85
2023-03-11T12:20:01.759Z,11.80
2023-03-11T12:21:01.693Z,11.95
2023-03-11T12:22:02.921Z,11.89
2023-03-11T12:23:01.615Z,12.03
2023-03-11T12:24:01.720Z,12.00
2023-03-11T12:25:01.531Z,11.95
2023-03-11T12:26:01.475Z,11.86
2023-03-11T12:27:01.450Z,11.83
2023-03-11T12:28:01.843Z,11.70
2023-03-11T12:29:01.368Z,11.55
2023-03-11T12:30:01.548Z,11.60
2023-03-11T12:31:01.296Z,11.56
2023-03-11T12:32:01.212Z,11.56
2023-03-11T12:33:01.595Z,11.56
2023-03-11T12:34:01.145Z,11.58
2023-03-11T12:35:01.396Z,11.67
2023-03-11T12:36:01.099Z,11.67
2023-03-11T12:37:01.300Z,11.68
2023-03-11T12:38:01.105Z,11.77
2023-03-11T12:39:01.113Z,11.81
2023-03-11T12:40:01.121Z,11.88
2023-03-11T12:41:00.826Z,11.93
2023-03-11T12:42:01.620Z,11.97
2023-03-11T12:43:00.937Z,12.03
2023-03-11T12:44:01.043Z,12.11
2023-03-11T12:45:01.381Z,12.11
2023-03-11T12:46:00.857Z,12.12
2023-03-11T12:47:00.917Z,12.12
2023-03-11T12:48:00.675Z,12.00
2023-03-11T12:49:00.682Z,11.96
2023-03-11T12:50:00.422Z,11.89
2023-03-11T12:51:01.702Z,11.80
2023-03-11T12:52:00.425Z,11.40
2023-03-11T12:53:00.505Z,11.05
2023-03-11T12:54:00.254Z,11.12
2023-03-11T12:55:00.404Z,10.94
2023-03-11T12:56:00.415Z,10.87
2023-03-11T12:57:00.282Z,11.00
2023-03-11T12:58:01.246Z,11.05
2023-03-11T12:59:00.027Z,11.10
2023-03-11T13:00:00.244Z,11.02
2023-03-11T13:00:59.937Z,11.18
2023-03-11T13:01:59.929Z,11.30
2023-03-11T13:02:59.910Z,11.33
2023-03-11T13:04:00.270Z,11.40
2023-03-11T13:04:59.765Z,11.55
2023-03-11T13:05:59.770Z,11.59
2023-03-11T13:06:59.674Z,11.43
2023-03-11T13:07:59.651Z,11.40
2023-03-11T13:08:59.605Z,11.41
2023-03-11T13:09:59.911Z,11.43
2023-03-11T13:10:59.497Z,11.44
2023-03-11T13:11:59.639Z,11.40
2023-03-11T13:12:59.417Z,11.55
2023-03-11T13:13:59.364Z,11.43
2023-03-11T13:15:01.913Z,11.40
2023-03-11T13:15:59.573Z,11.41
2023-03-11T13:16:59.267Z,11.44
2023-03-11T13:17:59.355Z,11.41
2023-03-11T13:18:59.147Z,11.45
2023-03-11T13:19:59.095Z,11.55
2023-03-11T13:20:59.056Z,11.56
2023-03-11T13:21:59.178Z,11.55
2023-03-11T13:22:59.178Z,11.60
2023-03-11T13:23:59.041Z,11.65